Japan Airlines Virtual Airport Information Service

Stockholm Arlanda Airport

ICAO: ESSA Country: Sweden
Latitude: 59.6519 Longitude: 17.9186
Latest Arrival : BAW780F (EGLL-ESSA) Latest Departure : SCC391 (ESSA-SEQM)


WX CaptureLIVE
Data provided by noaa.gov | Fetched at 08:49:21

METAR : ESSA 090820Z 27010KT 9999 FEW030 14/08 Q1008 NOSIG

TAF : ESSA 090530Z 0906/1006 27006KT CAVOK


Runway Data for ESSA
Data provided by openaviationdata.com

Runway ID Mag Var Hdg Length Elevation Surface ILS Freq ILS Id ILS Slope

Stockholm Arlanda Airport, Sweden
Use only for reference purposes



Not for navigational purposes.